createdAt,value
2022-12-29T00:00:41.397Z,1.27
2022-12-29T00:03:11.136Z,1.17
2022-12-29T00:05:41.001Z,0.67
2022-12-29T00:08:10.839Z,1.24
2022-12-29T00:10:40.570Z,0.43
2022-12-29T00:13:28.397Z,0.93
2022-12-29T00:15:58.253Z,0.90
2022-12-29T00:18:29.639Z,1.13
2022-12-29T00:21:17.038Z,1.63
2022-12-29T00:24:05.608Z,0.80
2022-12-29T00:26:53.037Z,1.10
2022-12-29T00:29:30.176Z,0.90
2022-12-29T00:32:17.488Z,0.87
2022-12-29T00:35:05.727Z,1.50
2022-12-29T00:37:54.304Z,0.60
2022-12-29T00:40:41.638Z,0.60
2022-12-29T00:43:28.723Z,1.20
2022-12-29T00:45:58.790Z,0.60
2022-12-29T00:48:46.107Z,0.77
2022-12-29T00:51:15.880Z,1.10
2022-12-29T00:53:47.050Z,1.10
2022-12-29T00:56:16.586Z,1.07
2022-12-29T00:58:47.868Z,1.05
2022-12-29T01:01:17.857Z,1.50
2022-12-29T01:03:47.542Z,0.77
2022-12-29T01:06:17.414Z,1.43
2022-12-29T01:08:49.718Z,0.78
2022-12-29T01:13:47.824Z,1.20
2022-12-29T01:16:17.354Z,1.13
2022-12-29T01:18:47.819Z,1.40
2022-12-29T01:21:17.357Z,1.40
2022-12-29T01:23:47.662Z,0.73
2022-12-29T01:26:19.146Z,1.73
2022-12-29T01:28:49.157Z,1.40
2022-12-29T01:31:18.717Z,1.40
2022-12-29T01:33:48.550Z,2.07
2022-12-29T01:36:19.168Z,1.00
2022-12-29T01:38:49.068Z,1.37
2022-12-29T01:41:19.244Z,1.40
2022-12-29T01:43:51.357Z,0.30
2022-12-29T01:46:40.288Z,0.50
2022-12-29T01:49:24.903Z,0.80
2022-12-29T01:52:01.452Z,1.12
2022-12-29T01:54:40.697Z,0.55
2022-12-29T01:57:13.581Z,0.60
2022-12-29T01:59:47.147Z,0.90
2022-12-29T02:02:17.564Z,0.93
2022-12-29T02:04:49.028Z,1.22
2022-12-29T02:07:23.104Z,0.70
2022-12-29T02:09:55.971Z,0.78
2022-12-29T02:12:26.591Z,0.60
2022-12-29T02:14:59.792Z,0.85
2022-12-29T02:17:44.443Z,0.93
2022-12-29T02:20:30.308Z,1.30
2022-12-29T02:23:15.071Z,1.27
2022-12-29T02:26:04.263Z,0.53
2022-12-29T02:28:55.503Z,0.50
2022-12-29T02:31:49.602Z,0.40
2022-12-29T02:34:44.660Z,0.93
2022-12-29T02:37:17.141Z,0.50
2022-12-29T02:40:11.956Z,1.03
2022-12-29T02:42:53.106Z,0.70
2022-12-29T02:45:53.408Z,0.60
2022-12-29T02:48:44.138Z,0.70
2022-12-29T02:51:16.652Z,0.60
2022-12-29T02:54:05.411Z,0.40
2022-12-29T02:56:35.226Z,0.40
2022-12-29T02:59:06.988Z,0.75
2022-12-29T03:01:51.043Z,0.80
2022-12-29T03:04:32.890Z,0.33
2022-12-29T03:07:24.423Z,1.10
2022-12-29T03:10:21.280Z,0.70
2022-12-29T03:13:17.775Z,0.50
2022-12-29T03:16:18.050Z,0.33
2022-12-29T03:19:08.401Z,0.60
2022-12-29T03:22:05.373Z,0.85
2022-12-29T03:24:39.909Z,1.87
2022-12-29T03:27:13.017Z,0.77
2022-12-29T03:29:47.248Z,0.93
2022-12-29T03:32:18.406Z,0.60
2022-12-29T03:34:50.741Z,1.15
2022-12-29T03:37:26.202Z,0.33
2022-12-29T03:39:56.890Z,0.80
2022-12-29T03:42:30.719Z,0.75
2022-12-29T03:45:00.604Z,0.53
2022-12-29T03:47:30.797Z,0.57
2022-12-29T03:50:00.620Z,1.00
2022-12-29T03:52:30.690Z,0.40
2022-12-29T03:55:00.418Z,0.40
2022-12-29T03:57:30.195Z,0.73
2022-12-29T04:00:01.630Z,0.57
2022-12-29T04:02:32.759Z,0.60
2022-12-29T04:05:02.817Z,0.60
2022-12-29T04:07:32.853Z,0.60
2022-12-29T04:10:05.338Z,0.43
2022-12-29T04:12:37.061Z,0.50
2022-12-29T04:15:08.233Z,1.37
2022-12-29T04:17:38.898Z,0.68
2022-12-29T04:20:26.976Z,0.42
2022-12-29T04:23:03.398Z,0.57
2022-12-29T04:25:34.469Z,0.35
2022-12-29T04:28:08.174Z,0.47
2022-12-29T04:30:42.871Z,0.60
2022-12-29T04:33:15.070Z,0.33
2022-12-29T04:35:45.975Z,0.70
2022-12-29T04:38:16.960Z,0.35
2022-12-29T04:40:49.575Z,0.63
2022-12-29T04:43:20.393Z,0.95
2022-12-29T04:46:07.970Z,0.73
2022-12-29T04:48:48.002Z,0.53
2022-12-29T04:51:35.971Z,0.40
2022-12-29T04:54:07.049Z,0.33
2022-12-29T04:56:37.660Z,0.80
2022-12-29T04:59:07.448Z,0.83
2022-12-29T05:01:37.348Z,0.67
2022-12-29T05:04:07.206Z,0.70
2022-12-29T05:06:37.018Z,0.33
2022-12-29T05:09:06.805Z,0.40
2022-12-29T05:11:37.667Z,0.42
2022-12-29T05:14:07.299Z,0.67
2022-12-29T05:16:38.308Z,0.40
2022-12-29T05:19:08.003Z,0.43
2022-12-29T05:21:37.818Z,0.83
2022-12-29T05:24:07.869Z,0.62
2022-12-29T05:26:38.341Z,0.60
2022-12-29T05:29:09.821Z,0.40
2022-12-29T05:31:39.733Z,0.47
2022-12-29T05:34:09.253Z,0.80
2022-12-29T05:36:39.159Z,0.50
2022-12-29T05:41:39.634Z,0.50
2022-12-29T05:44:14.258Z,0.35
2022-12-29T05:46:45.840Z,1.10
2022-12-29T05:49:23.345Z,0.30
2022-12-29T05:51:57.810Z,0.90
2022-12-29T05:54:27.951Z,1.05
2022-12-29T05:56:58.743Z,0.33
2022-12-29T05:59:28.600Z,0.43
2022-12-29T06:01:58.605Z,0.93
2022-12-29T06:04:29.521Z,0.30
2022-12-29T06:07:00.376Z,0.68
2022-12-29T06:09:40.683Z,0.47
2022-12-29T06:12:11.904Z,0.67
2022-12-29T06:14:43.264Z,0.30
2022-12-29T06:17:13.625Z,0.60
2022-12-29T06:19:43.489Z,0.90
2022-12-29T06:22:13.390Z,0.60
2022-12-29T06:24:44.102Z,1.07
2022-12-29T06:27:14.943Z,0.57
2022-12-29T06:29:44.972Z,0.63
2022-12-29T06:32:15.306Z,0.50
2022-12-29T06:34:46.904Z,0.70
2022-12-29T06:37:16.970Z,0.80
2022-12-29T06:42:17.311Z,0.80
2022-12-29T06:44:48.767Z,0.70
2022-12-29T06:47:18.516Z,0.60
2022-12-29T06:49:48.352Z,1.13
2022-12-29T06:52:17.803Z,0.90
2022-12-29T06:54:47.654Z,0.87
2022-12-29T06:57:17.443Z,0.72
2022-12-29T06:59:47.269Z,0.67
2022-12-29T07:02:18.694Z,0.90
2022-12-29T07:04:48.478Z,1.23
2022-12-29T07:07:18.277Z,1.00
2022-12-29T07:09:48.442Z,0.80
2022-12-29T07:12:18.210Z,1.25
2022-12-29T07:14:47.951Z,0.80
2022-12-29T07:17:17.590Z,0.63
2022-12-29T07:19:47.331Z,0.83
2022-12-29T07:22:16.966Z,0.63
2022-12-29T07:24:46.993Z,1.03
2022-12-29T07:27:16.536Z,0.77
2022-12-29T07:29:46.279Z,0.90
2022-12-29T07:32:15.830Z,0.97
2022-12-29T07:34:47.779Z,1.03
2022-12-29T07:37:20.974Z,1.20
2022-12-29T07:39:50.681Z,0.40
2022-12-29T07:42:20.484Z,1.80
2022-12-29T07:44:51.709Z,0.80
2022-12-29T07:47:38.362Z,0.70
2022-12-29T07:50:08.573Z,0.80
2022-12-29T07:52:38.211Z,1.07
2022-12-29T07:55:08.648Z,1.10
2022-12-29T07:57:38.718Z,0.55
2022-12-29T08:00:10.551Z,0.60
2022-12-29T08:02:42.882Z,0.80
2022-12-29T08:05:12.781Z,1.17
2022-12-29T08:07:44.750Z,0.63
2022-12-29T08:10:15.486Z,0.70
2022-12-29T08:12:45.749Z,0.70
2022-12-29T08:15:15.640Z,1.23
2022-12-29T08:17:45.392Z,1.00
2022-12-29T08:20:15.155Z,1.25
2022-12-29T08:22:44.882Z,0.80
2022-12-29T08:25:14.976Z,1.07
2022-12-29T08:27:44.711Z,0.67
2022-12-29T08:30:14.798Z,0.80
2022-12-29T08:32:44.440Z,1.70
2022-12-29T08:35:14.280Z,0.67
2022-12-29T08:37:44.093Z,0.80
2022-12-29T08:40:14.518Z,0.90
2022-12-29T08:42:44.075Z,0.57
2022-12-29T08:45:13.705Z,0.60
2022-12-29T08:47:43.934Z,0.77
2022-12-29T08:50:13.715Z,1.17
2022-12-29T08:52:43.544Z,0.80
2022-12-29T08:55:13.019Z,0.53
2022-12-29T08:57:42.860Z,0.47
2022-12-29T09:00:17.482Z,0.70
2022-12-29T09:02:47.438Z,0.77
2022-12-29T09:05:17.423Z,0.62
2022-12-29T09:07:47.478Z,1.23
2022-12-29T09:10:17.128Z,0.73
2022-12-29T09:12:46.942Z,1.23
2022-12-29T09:15:16.779Z,0.87
2022-12-29T09:17:46.900Z,0.53
2022-12-29T09:20:19.202Z,1.22
2022-12-29T09:22:50.126Z,1.27
2022-12-29T09:27:48.912Z,1.22
2022-12-29T09:30:18.709Z,0.98
2022-12-29T09:32:54.878Z,0.70
2022-12-29T09:35:20.832Z,0.60
2022-12-29T09:37:50.601Z,0.80
2022-12-29T09:40:32.840Z,0.97
2022-12-29T09:43:11.343Z,0.90
2022-12-29T09:46:18.950Z,1.15
2022-12-29T09:48:52.083Z,0.40
2022-12-29T09:51:24.700Z,0.90
2022-12-29T09:53:57.529Z,1.60
2022-12-29T09:56:28.838Z,1.77
2022-12-29T09:59:15.851Z,0.87
2022-12-29T10:02:03.754Z,1.60
2022-12-29T10:04:34.134Z,1.40
2022-12-29T10:09:44.180Z,1.57
2022-12-29T10:12:31.516Z,0.70
2022-12-29T10:15:07.492Z,1.03
2022-12-29T10:17:42.811Z,1.47
2022-12-29T10:20:39.648Z,1.25
2022-12-29T10:23:33.267Z,1.43
2022-12-29T10:26:05.313Z,1.00
2022-12-29T10:28:46.963Z,0.57
2022-12-29T10:31:21.435Z,0.37
2022-12-29T10:34:00.335Z,2.97
2022-12-29T10:36:44.858Z,2.67
2022-12-29T10:39:20.595Z,1.75
2022-12-29T10:42:13.565Z,1.00
2022-12-29T10:44:43.405Z,0.70
2022-12-29T10:47:18.993Z,1.13
2022-12-29T10:49:50.529Z,1.03
2022-12-29T10:52:22.809Z,0.70
2022-12-29T10:55:04.627Z,0.80
2022-12-29T10:57:44.980Z,1.10
2022-12-29T11:00:18.102Z,1.00
2022-12-29T11:03:16.511Z,0.73
2022-12-29T11:06:13.292Z,0.97
2022-12-29T11:08:46.360Z,1.07
2022-12-29T11:11:19.437Z,0.50
2022-12-29T11:13:55.179Z,0.80
2022-12-29T11:16:34.992Z,1.23
2022-12-29T11:19:04.969Z,1.20
2022-12-29T11:21:43.285Z,1.63
2022-12-29T11:24:25.018Z,1.23
2022-12-29T11:27:00.529Z,2.30
2022-12-29T11:29:32.803Z,1.00
2022-12-29T11:32:05.997Z,1.52
2022-12-29T11:34:37.666Z,1.00
2022-12-29T11:37:10.805Z,2.70
2022-12-29T11:39:55.178Z,0.77
2022-12-29T11:42:32.244Z,0.97
2022-12-29T11:45:11.109Z,1.57
2022-12-29T11:47:39.406Z,0.83
2022-12-29T11:50:10.408Z,1.20
2022-12-29T11:52:40.712Z,0.82
2022-12-29T11:55:13.389Z,0.93
2022-12-29T11:57:44.473Z,0.73
2022-12-29T12:00:27.340Z,1.57
2022-12-29T12:03:03.339Z,0.80
2022-12-29T12:05:54.938Z,0.77
2022-12-29T12:08:41.854Z,1.22
2022-12-29T12:11:14.862Z,1.13
2022-12-29T12:13:59.529Z,2.00
2022-12-29T12:16:33.365Z,0.90
2022-12-29T12:19:06.405Z,2.72
2022-12-29T12:21:46.107Z,2.27
2022-12-29T12:24:24.754Z,0.90
2022-12-29T12:26:57.629Z,0.97
2022-12-29T12:29:36.678Z,1.30
2022-12-29T12:32:16.384Z,1.03
2022-12-29T12:34:48.268Z,0.70
2022-12-29T12:37:33.009Z,1.22
2022-12-29T12:40:30.339Z,1.62
2022-12-29T12:43:19.209Z,1.20
2022-12-29T12:45:57.926Z,1.73
2022-12-29T12:48:36.611Z,1.63
2022-12-29T12:51:15.732Z,1.50
2022-12-29T12:54:06.473Z,1.97
2022-12-29T12:56:58.477Z,1.90
2022-12-29T12:59:54.124Z,1.40
2022-12-29T13:02:32.342Z,1.63
2022-12-29T13:05:26.438Z,1.40
2022-12-29T13:08:17.949Z,1.23
2022-12-29T13:10:57.182Z,2.87
2022-12-29T13:13:48.467Z,1.73
2022-12-29T13:16:21.436Z,2.25
2022-12-29T13:18:57.234Z,1.40
2022-12-29T13:22:00.089Z,2.53
2022-12-29T13:24:26.820Z,1.83
2022-12-29T13:27:20.332Z,1.13
2022-12-29T13:29:53.161Z,1.90
2022-12-29T13:32:25.812Z,1.70
2022-12-29T13:35:21.230Z,1.30
2022-12-29T13:37:54.011Z,1.17
2022-12-29T13:40:26.867Z,1.13
2022-12-29T13:42:58.449Z,1.40
2022-12-29T13:45:31.293Z,0.93
2022-12-29T13:48:06.927Z,1.23
2022-12-29T13:50:39.803Z,1.40
2022-12-29T13:53:18.716Z,1.30
2022-12-29T13:56:00.266Z,1.40
2022-12-29T13:58:38.779Z,1.53
2022-12-29T14:01:14.358Z,1.17
2022-12-29T14:03:56.776Z,1.57
2022-12-29T14:06:35.582Z,0.90
2022-12-29T14:09:10.568Z,2.10
2022-12-29T14:11:42.258Z,1.23
2022-12-29T14:14:17.838Z,1.55
2022-12-29T14:16:47.900Z,1.50
2022-12-29T14:19:20.779Z,1.53
2022-12-29T14:21:59.901Z,2.47
2022-12-29T14:24:39.113Z,1.75
2022-12-29T14:27:17.833Z,1.67
2022-12-29T14:29:49.604Z,2.60
2022-12-29T14:32:30.999Z,1.87
2022-12-29T14:35:05.327Z,2.37
2022-12-29T14:37:39.080Z,2.50
2022-12-29T14:40:20.760Z,1.80
2022-12-29T14:42:52.467Z,1.72
2022-12-29T14:45:30.919Z,2.47
2022-12-29T14:48:01.284Z,1.80
2022-12-29T14:50:42.915Z,2.50
2022-12-29T14:53:47.819Z,1.90
2022-12-29T14:56:21.229Z,1.57
2022-12-29T14:58:53.894Z,1.75
2022-12-29T15:01:26.868Z,4.12
2022-12-29T15:04:02.702Z,2.07
2022-12-29T15:06:34.023Z,2.00
2022-12-29T15:09:20.222Z,2.37
2022-12-29T15:11:53.349Z,2.25
2022-12-29T15:14:35.106Z,2.30
2022-12-29T15:17:13.872Z,2.47
2022-12-29T15:19:43.594Z,2.40
2022-12-29T15:22:14.284Z,2.87
2022-12-29T15:24:45.081Z,2.37
2022-12-29T15:27:19.989Z,3.17
2022-12-29T15:29:50.216Z,3.87
2022-12-29T15:32:28.684Z,2.33
2022-12-29T15:35:02.208Z,2.25
2022-12-29T15:37:39.563Z,2.37
2022-12-29T15:40:12.189Z,2.23
2022-12-29T15:42:53.690Z,3.33
2022-12-29T15:45:26.520Z,3.17
2022-12-29T15:47:58.172Z,2.00
2022-12-29T15:53:02.233Z,2.67
2022-12-29T15:55:38.070Z,4.20
2022-12-29T15:58:09.603Z,3.80
2022-12-29T16:00:39.888Z,2.83
2022-12-29T16:03:12.901Z,3.03
2022-12-29T16:05:43.091Z,3.90
2022-12-29T16:08:36.834Z,3.00
2022-12-29T16:11:27.944Z,3.33
2022-12-29T16:13:58.724Z,3.13
2022-12-29T16:16:31.595Z,2.50
2022-12-29T16:19:02.971Z,3.30
2022-12-29T16:21:36.075Z,3.67
2022-12-29T16:24:19.005Z,2.98
2022-12-29T16:26:58.015Z,2.62
2022-12-29T16:29:30.288Z,3.13
2022-12-29T16:32:03.068Z,3.65
2022-12-29T16:34:35.430Z,2.77
2022-12-29T16:37:25.846Z,3.58
2022-12-29T16:39:55.633Z,2.87
2022-12-29T16:42:50.984Z,3.33
2022-12-29T16:45:24.923Z,2.87
2022-12-29T16:48:09.739Z,2.47
2022-12-29T16:50:41.694Z,2.33
2022-12-29T16:53:28.971Z,2.77
2022-12-29T16:56:01.609Z,2.93
2022-12-29T16:58:32.986Z,2.77
2022-12-29T17:01:04.355Z,2.30
2022-12-29T17:03:37.263Z,2.62
2022-12-29T17:06:07.381Z,3.67
2022-12-29T17:08:44.359Z,2.53
2022-12-29T17:11:57.784Z,2.70
2022-12-29T17:14:31.475Z,3.13
2022-12-29T17:17:01.838Z,3.80
2022-12-29T17:19:36.724Z,5.67
2022-12-29T17:22:11.551Z,3.87
2022-12-29T17:24:41.417Z,3.23
2022-12-29T17:27:14.228Z,2.60
2022-12-29T17:29:44.133Z,3.23
2022-12-29T17:32:15.421Z,3.30
2022-12-29T17:34:44.982Z,3.10
2022-12-29T17:37:29.944Z,3.35
2022-12-29T17:39:59.686Z,3.93
2022-12-29T17:42:30.146Z,3.07
2022-12-29T17:45:00.760Z,4.17
2022-12-29T17:49:58.980Z,2.83
2022-12-29T17:52:28.794Z,3.10
2022-12-29T17:54:58.569Z,3.10
2022-12-29T17:57:28.378Z,3.40
2022-12-29T17:59:58.154Z,2.93
2022-12-29T18:02:31.459Z,2.93
2022-12-29T18:05:01.582Z,2.80
2022-12-29T18:07:35.922Z,3.40
2022-12-29T18:10:03.116Z,2.80
2022-12-29T18:12:35.897Z,3.03
2022-12-29T18:15:07.648Z,3.50
2022-12-29T18:17:37.268Z,2.77
2022-12-29T18:20:07.773Z,3.53
2022-12-29T18:22:37.538Z,3.80
2022-12-29T18:25:28.267Z,3.40
2022-12-29T18:27:57.774Z,3.53
2022-12-29T18:30:27.557Z,3.00
2022-12-29T18:32:57.300Z,3.67
2022-12-29T18:35:45.100Z,3.70
2022-12-29T18:38:14.702Z,3.63
2022-12-29T18:40:44.478Z,3.03
2022-12-29T18:43:18.336Z,3.37
2022-12-29T18:45:48.252Z,3.15
2022-12-29T18:48:19.637Z,3.60
2022-12-29T18:50:51.919Z,3.27
2022-12-29T18:53:23.695Z,3.37
2022-12-29T18:55:55.172Z,3.57
2022-12-29T19:00:55.506Z,2.83
2022-12-29T19:03:25.446Z,3.60
2022-12-29T19:05:55.381Z,3.27
2022-12-29T19:08:25.710Z,3.63
2022-12-29T19:10:55.523Z,3.63
2022-12-29T19:13:27.093Z,4.77
2022-12-29T19:15:58.194Z,4.33
2022-12-29T19:18:48.771Z,3.58
2022-12-29T19:21:00.810Z,2.87
2022-12-29T19:23:30.642Z,3.47
2022-12-29T19:26:00.420Z,2.83
2022-12-29T19:28:30.586Z,3.43
2022-12-29T19:31:02.266Z,3.23
2022-12-29T19:33:32.101Z,3.50
2022-12-29T19:36:03.529Z,3.27
2022-12-29T19:38:33.272Z,3.80
2022-12-29T19:41:04.577Z,4.17
2022-12-29T19:43:34.582Z,3.63
2022-12-29T19:46:12.270Z,3.33
2022-12-29T19:48:42.281Z,3.57
2022-12-29T19:51:16.236Z,3.40
2022-12-29T19:53:47.834Z,3.60
2022-12-29T19:56:18.510Z,3.57
2022-12-29T19:58:48.459Z,3.80
2022-12-29T20:01:21.703Z,3.70
2022-12-29T20:03:52.905Z,4.50
2022-12-29T20:06:23.044Z,3.70
2022-12-29T20:08:53.127Z,3.15
2022-12-29T20:11:23.183Z,2.73
2022-12-29T20:13:52.997Z,3.53
2022-12-29T20:16:22.632Z,3.33
2022-12-29T20:18:52.444Z,4.00
2022-12-29T20:21:24.829Z,3.50
2022-12-29T20:23:56.237Z,3.70
2022-12-29T20:26:30.261Z,3.07
2022-12-29T20:29:00.815Z,4.00
2022-12-29T20:31:33.311Z,3.63
2022-12-29T20:34:04.554Z,2.83
2022-12-29T20:36:35.783Z,3.30
2022-12-29T20:41:37.129Z,3.33
2022-12-29T20:44:06.641Z,4.03
2022-12-29T20:46:43.298Z,2.90
2022-12-29T20:49:08.049Z,3.97
2022-12-29T20:52:04.495Z,3.67
2022-12-29T20:54:08.959Z,2.30
2022-12-29T20:56:39.737Z,2.80
2022-12-29T20:59:26.968Z,3.50
2022-12-29T21:01:42.139Z,3.27
2022-12-29T21:04:11.678Z,2.70
2022-12-29T21:06:41.662Z,2.93
2022-12-29T21:09:11.147Z,3.60
2022-12-29T21:11:40.970Z,2.70
2022-12-29T21:14:10.466Z,2.77
2022-12-29T21:16:40.381Z,3.73
2022-12-29T21:19:09.860Z,3.00
2022-12-29T21:21:39.651Z,2.80
2022-12-29T21:24:09.304Z,2.73
2022-12-29T21:26:40.001Z,3.17
2022-12-29T21:29:09.451Z,3.00
2022-12-29T21:31:39.332Z,3.37
2022-12-29T21:34:09.916Z,3.30
2022-12-29T21:36:40.450Z,2.45
2022-12-29T21:39:12.745Z,2.90
2022-12-29T21:41:43.732Z,3.47
2022-12-29T21:44:31.207Z,2.80
2022-12-29T21:47:01.247Z,3.57
2022-12-29T21:49:31.006Z,3.60
2022-12-29T21:52:01.167Z,4.05
2022-12-29T21:54:49.956Z,3.03
2022-12-29T21:57:38.513Z,2.93
2022-12-29T22:00:28.856Z,3.53
2022-12-29T22:03:22.937Z,3.27
2022-12-29T22:06:10.022Z,3.00
2022-12-29T22:08:57.976Z,3.62
2022-12-29T22:11:45.903Z,4.13
2022-12-29T22:14:16.739Z,3.13
2022-12-29T22:16:47.452Z,4.28
2022-12-29T22:19:17.021Z,3.30
2022-12-29T22:21:46.810Z,3.90
2022-12-29T22:24:16.723Z,2.80
2022-12-29T22:26:46.485Z,3.93
2022-12-29T22:29:16.257Z,4.23
2022-12-29T22:31:46.143Z,3.17
2022-12-29T22:34:16.610Z,3.40
2022-12-29T22:36:46.097Z,3.83
2022-12-29T22:39:16.163Z,3.07
2022-12-29T22:41:46.249Z,2.87
2022-12-29T22:44:16.050Z,2.93
2022-12-29T22:46:52.469Z,3.00
2022-12-29T22:49:24.155Z,3.55
2022-12-29T22:51:54.872Z,3.27
2022-12-29T22:54:26.377Z,2.50
2022-12-29T22:56:57.037Z,2.80
2022-12-29T22:59:27.928Z,3.22
2022-12-29T23:01:57.906Z,3.30
2022-12-29T23:06:59.204Z,2.90
2022-12-29T23:09:28.969Z,2.93
2022-12-29T23:11:59.089Z,3.23
2022-12-29T23:14:29.142Z,2.75
2022-12-29T23:16:58.925Z,3.20
2022-12-29T23:19:29.790Z,3.07
2022-12-29T23:21:59.861Z,3.17
2022-12-29T23:24:29.948Z,1.83
2022-12-29T23:26:59.920Z,3.23
2022-12-29T23:29:29.739Z,2.53
2022-12-29T23:31:59.502Z,2.40
2022-12-29T23:34:29.330Z,2.33
2022-12-29T23:36:59.063Z,2.20
2022-12-29T23:39:29.769Z,3.10
2022-12-29T23:41:59.388Z,2.17
2022-12-29T23:44:29.151Z,2.70
2022-12-29T23:46:59.062Z,2.10
2022-12-29T23:49:28.950Z,2.57
2022-12-29T23:51:58.691Z,1.87
2022-12-29T23:54:34.414Z,2.27
2022-12-29T23:57:04.178Z,2.20
2022-12-29T23:59:33.952Z,2.40
